Time;durP1;ratioP1;P1;durP2;ratioP2;P2;SDS_P1;SDS_P2;PMS_P1;PMS_P2;Temp;Humidity;BMP_temperature;BMP_pressure;BME280_temperature;BME280_humidity;BME280_pressure;Samples;Min_cycle;Max_cycle;Signal;HPM_P1;HPM_P2
2021/04/07 00:01:09;;;;;;;9.30;7.20;;;;;;;20.16;21.75;92939.25;5095780;28;20048;-47
2021/04/07 00:03:36;;;;;;;9.77;7.20;;;;;;;19.83;22.23;92944.94;5078147;28;20055;-49
2021/04/07 00:06:04;;;;;;;8.02;6.47;;;;;;;20.29;21.49;92940.34;5095923;28;20048;-41
2021/04/07 00:08:31;;;;;;;11.30;6.93;;;;;;;19.76;22.55;92950.19;5095562;28;20492;-41
2021/04/07 00:10:59;;;;;;;8.48;6.95;;;;;;;20.14;21.67;92960.09;5095673;28;20051;-41
2021/04/07 00:13:26;;;;;;;9.57;7.75;;;;;;;20.14;21.68;92956.69;5095464;28;20377;-43
2021/04/07 00:15:53;;;;;;;10.38;7.65;;;;;;;19.71;22.47;92954.00;5095354;28;20071;-42
2021/04/07 00:18:20;;;;;;;11.38;8.23;;;;;;;20.06;22.23;92947.97;5095490;28;20044;-41
2021/04/07 00:20:47;;;;;;;10.90;8.73;;;;;;;19.82;22.59;92941.53;5095231;28;20051;-40
2021/04/07 00:23:14;;;;;;;9.32;7.90;;;;;;;19.38;23.08;92950.50;5095388;28;20048;-41
2021/04/07 00:25:42;;;;;;;10.02;8.40;;;;;;;19.89;22.40;92956.66;5094886;28;20048;-41
2021/04/07 00:28:10;;;;;;;9.25;7.30;;;;;;;19.71;22.50;92944.16;5095405;28;20473;-41
2021/04/07 00:30:39;;;;;;;9.98;7.60;;;;;;;19.64;22.32;92932.78;5093906;28;20052;-43
2021/04/07 00:33:06;;;;;;;8.63;6.65;;;;;;;19.78;22.28;92913.47;5092897;28;20050;-40
2021/04/07 00:35:34;;;;;;;8.20;6.68;;;;;;;19.56;22.52;92900.22;5078648;28;20375;-41
2021/04/07 00:38:01;;;;;;;11.05;7.65;;;;;;;19.53;22.81;92916.88;5074920;28;20110;-42
2021/04/07 00:40:28;;;;;;;8.18;7.03;;;;;;;19.54;22.95;92929.00;5074802;28;20340;-41
2021/04/07 00:42:56;;;;;;;8.50;7.50;;;;;;;19.52;22.69;92910.03;5083364;28;20362;-41
2021/04/07 00:45:23;;;;;;;8.52;7.22;;;;;;;19.35;22.78;92910.75;5080482;28;20450;-42
2021/04/07 00:47:52;;;;;;;8.85;6.90;;;;;;;19.50;23.15;92901.66;5073750;28;20051;-40
2021/04/07 00:50:21;;;;;;;10.45;7.57;;;;;;;19.23;23.58;92897.84;5074769;28;20045;-40
2021/04/07 00:52:49;;;;;;;9.10;6.85;;;;;;;19.48;23.51;92903.94;5074968;28;20052;-42
2021/04/07 00:55:35;;;;;;;9.70;6.97;;;;;;;19.18;23.71;92882.31;5087287;28;20044;-41
2021/04/07 00:58:04;;;;;;;8.07;6.90;;;;;;;19.22;23.60;92883.06;5094678;28;20048;-41
2021/04/07 01:00:32;;;;;;;12.30;7.78;;;;;;;19.23;23.34;92864.16;5093995;28;20469;-41
2021/04/07 01:03:00;;;;;;;8.15;6.45;;;;;;;19.38;22.72;92878.97;5082372;28;20471;-41
2021/04/07 01:05:28;;;;;;;10.35;7.35;;;;;;;19.46;22.93;92869.13;5090537;28;20052;-41
2021/04/07 01:07:57;;;;;;;8.70;7.15;;;;;;;19.38;22.68;92870.25;5098776;28;20378;-40
2021/04/07 01:10:25;;;;;;;7.50;6.60;;;;;;;19.08;23.18;92887.22;5091491;28;20060;-47
2021/04/07 01:12:53;;;;;;;10.02;7.45;;;;;;;19.32;23.13;92885.75;5078779;28;20083;-41
2021/04/07 01:15:20;;;;;;;9.88;7.05;;;;;;;19.37;23.08;92871.38;5078415;28;20052;-40
2021/04/07 01:17:48;;;;;;;9.98;7.63;;;;;;;19.55;23.43;92893.41;5077481;28;20336;-40
2021/04/07 01:20:21;;;;;;;8.30;7.40;;;;;;;19.26;23.21;92889.16;5078524;28;20044;-42
2021/04/07 01:22:53;;;;;;;10.73;8.02;;;;;;;19.57;22.71;92885.81;5078411;28;20366;-41
2021/04/07 01:25:21;;;;;;;11.07;8.55;;;;;;;19.71;22.83;92911.56;5087910;28;20439;-41
2021/04/07 01:27:48;;;;;;;9.75;8.05;;;;;;;19.31;23.30;92899.38;5098753;28;20366;-40
2021/04/07 01:30:17;;;;;;;9.00;7.13;;;;;;;19.50;23.25;92890.31;5098533;28;20079;-41
2021/04/07 01:32:44;;;;;;;8.50;7.20;;;;;;;19.03;23.29;92922.03;5087971;28;20041;-42
2021/04/07 01:35:13;;;;;;;10.48;8.00;;;;;;;19.34;23.00;92927.78;5077982;28;20060;-41
2021/04/07 01:37:41;;;;;;;9.85;8.20;;;;;;;19.08;23.35;92929.59;5078174;28;20048;-47
2021/04/07 01:40:13;;;;;;;11.93;8.15;;;;;;;19.21;23.37;92926.59;5078023;28;20119;-41
2021/04/07 01:42:42;;;;;;;11.45;8.80;;;;;;;19.03;23.60;92940.56;5078165;28;20040;-41
2021/04/07 01:45:09;;;;;;;11.07;9.10;;;;;;;19.21;23.66;92942.50;5077749;28;20085;-42
2021/04/07 01:47:36;;;;;;;13.00;8.80;;;;;;;19.03;23.84;92929.97;5077059;28;20383;-40
2021/04/07 01:50:06;;;;;;;10.70;8.82;;;;;;;19.21;23.55;92937.19;5077862;28;20052;-40
2021/04/07 01:52:33;;;;;;;9.63;8.27;;;;;;;19.10;23.50;92929.97;5078094;28;20386;-41
2021/04/07 01:55:00;;;;;;;16.40;8.70;;;;;;;19.04;23.68;92928.84;5077678;28;20071;-41
2021/04/07 01:57:27;;;;;;;9.32;8.23;;;;;;;18.83;24.21;92934.03;5077925;28;20055;-40
2021/04/07 01:59:55;;;;;;;9.30;8.30;;;;;;;18.65;24.36;92943.78;5086107;28;20056;-41
2021/04/07 02:02:22;;;;;;;10.32;9.07;;;;;;;19.12;23.54;92940.19;5090390;28;20044;-41
2021/04/07 02:04:49;;;;;;;11.95;9.07;;;;;;;18.56;24.59;92953.91;5077596;28;20040;-41
2021/04/07 02:07:17;;;;;;;12.27;9.38;;;;;;;18.53;24.04;92947.47;5077783;28;20060;-41
2021/04/07 02:09:45;;;;;;;11.82;9.13;;;;;;;18.38;24.30;92951.91;5077467;28;20049;-40
2021/04/07 02:12:12;;;;;;;9.82;8.80;;;;;;;18.53;24.16;92952.78;5077589;28;20051;-41
2021/04/07 02:14:39;;;;;;;10.02;8.25;;;;;;;18.46;24.48;92947.41;5077326;28;20051;-40
2021/04/07 02:17:07;;;;;;;10.02;8.13;;;;;;;18.23;24.76;92950.31;5076820;28;20052;-41
2021/04/07 02:19:36;;;;;;;10.00;8.02;;;;;;;18.26;24.66;92973.38;5087063;28;20040;-41
2021/04/07 02:22:13;;;;;;;8.68;7.35;;;;;;;17.99;24.99;92967.50;5096124;28;20051;-41
2021/04/07 02:24:42;;;;;;;7.03;6.32;;;;;;;18.14;24.45;92968.38;5092336;28;20056;-41
2021/04/07 02:27:17;;;;;;;5.88;5.25;;;;;;;18.03;24.55;92967.53;5077426;28;20055;-42
2021/04/07 02:29:55;;;;;;;6.65;5.10;;;;;;;17.74;24.92;92967.28;5077093;28;20044;-47
2021/04/07 02:32:24;;;;;;;5.13;4.22;;;;;;;17.43;25.52;92968.47;5081731;28;20052;-41
2021/04/07 02:34:52;;;;;;;4.78;4.18;;;;;;;17.75;24.96;92974.09;5076892;28;20482;-42
2021/04/07 02:37:19;;;;;;;5.35;3.92;;;;;;;17.16;25.65;92978.34;5077168;28;20052;-41
2021/04/07 02:39:47;;;;;;;4.32;3.40;;;;;;;17.33;25.51;92969.13;5076979;28;20052;-43
2021/04/07 02:42:17;;;;;;;4.03;3.58;;;;;;;17.32;25.29;92969.47;5076219;28;20443;-42
2021/04/07 02:44:44;;;;;;;3.72;3.22;;;;;;;17.30;25.27;92974.38;5076694;28;20053;-41
2021/04/07 02:47:11;;;;;;;3.67;3.13;;;;;;;17.17;25.19;92990.44;5076957;28;20052;-47
2021/04/07 02:49:38;;;;;;;2.95;2.60;;;;;;;16.90;25.35;92986.34;5076665;28;20059;-40
2021/04/07 02:52:05;;;;;;;2.83;2.40;;;;;;;17.52;24.43;92987.44;5095361;28;20052;-41
2021/04/07 02:54:33;;;;;;;3.22;2.50;;;;;;;17.36;24.59;92994.03;5096899;28;20059;-40
2021/04/07 02:57:03;;;;;;;2.60;2.08;;;;;;;17.55;24.53;93012.38;5097066;28;20051;-41
2021/04/07 02:59:31;;;;;;;2.33;1.55;;;;;;;17.81;24.05;93020.22;5096658;28;20366;-45
2021/04/07 03:01:58;;;;;;;3.60;1.77;;;;;;;17.04;25.03;93036.69;5093730;28;20048;-45
2021/04/07 03:04:25;;;;;;;2.00;1.70;;;;;;;17.09;24.83;93044.28;5096016;28;20059;-42
2021/04/07 03:06:52;;;;;;;1.85;1.42;;;;;;;17.32;24.46;93040.78;5095688;28;20044;-46
2021/04/07 03:09:20;;;;;;;1.90;1.50;;;;;;;16.97;25.02;93051.69;5096778;28;20044;-41
2021/04/07 03:11:47;;;;;;;2.40;1.42;;;;;;;17.05;24.62;93064.59;5089550;28;20348;-43
2021/04/07 03:14:14;;;;;;;2.08;1.60;;;;;;;16.93;24.75;93062.19;5076313;28;20048;-45
2021/04/07 03:16:41;;;;;;;2.33;1.70;;;;;;;17.25;24.67;93066.00;5076364;28;20060;-42
2021/04/07 03:19:08;;;;;;;1.38;1.08;;;;;;;17.52;23.85;93060.66;5076087;28;20044;-49
2021/04/07 03:21:35;;;;;;;1.27;1.00;;;;;;;17.30;24.10;93072.84;5076088;28;20044;-48
2021/04/07 03:24:03;;;;;;;1.73;1.30;;;;;;;17.10;24.32;93063.53;5076161;28;20048;-42
2021/04/07 03:26:31;;;;;;;1.90;1.45;;;;;;;16.90;24.40;93070.81;5076085;28;20455;-40
2021/04/07 03:28:58;;;;;;;1.83;1.25;;;;;;;16.97;24.53;93067.50;5075859;28;20045;-41
2021/04/07 03:31:27;;;;;;;3.70;1.33;;;;;;;16.92;24.00;93081.78;5075777;28;20060;-45
2021/04/07 03:33:54;;;;;;;2.22;1.38;;;;;;;16.79;24.31;93067.25;5095810;28;20052;-42
2021/04/07 03:36:21;;;;;;;1.33;0.90;;;;;;;16.68;24.13;93090.09;5096256;28;20055;-40
2021/04/07 03:38:48;;;;;;;1.60;0.90;;;;;;;16.51;24.56;93088.69;5085483;28;20048;-39
2021/04/07 03:41:15;;;;;;;1.10;0.80;;;;;;;16.78;24.13;93092.13;5075859;28;20049;-41
2021/04/07 03:43:42;;;;;;;2.17;1.20;;;;;;;16.44;24.22;93107.78;5075487;28;20463;-40
2021/04/07 03:46:10;;;;;;;1.40;1.00;;;;;;;16.62;24.19;93095.63;5091664;28;20055;-41
2021/04/07 03:48:37;;;;;;;1.40;0.88;;;;;;;16.29;24.46;93108.66;5075676;28;20044;-41
2021/04/07 03:51:04;;;;;;;2.08;1.40;;;;;;;16.72;23.84;93117.31;5075629;28;20458;-41
2021/04/07 03:53:32;;;;;;;1.52;1.00;;;;;;;16.15;24.65;93126.91;5075505;28;20083;-42
2021/04/07 03:55:59;;;;;;;1.38;1.13;;;;;;;16.32;24.49;93145.66;5075464;28;20052;-40
2021/04/07 03:58:26;;;;;;;1.58;1.05;;;;;;;16.59;23.91;93149.09;5074534;28;20371;-40
2021/04/07 04:00:54;;;;;;;1.00;0.80;;;;;;;16.30;23.96;93157.66;5075581;28;20063;-41
2021/04/07 04:03:22;;;;;;;1.60;0.80;;;;;;;16.57;23.48;93166.41;5090545;28;20055;-41
2021/04/07 04:05:49;;;;;;;1.40;0.93;;;;;;;16.58;23.57;93186.41;5095590;28;20047;-41
2021/04/07 04:08:17;;;;;;;1.25;1.00;;;;;;;16.33;23.99;93199.16;5095617;28;20058;-41
2021/04/07 04:10:45;;;;;;;2.05;0.80;;;;;;;16.64;23.43;93193.66;5095735;28;20047;-42
2021/04/07 04:13:12;;;;;;;1.00;0.70;;;;;;;16.81;22.96;93197.75;5095362;28;20378;-41
2021/04/07 04:15:39;;;;;;;1.38;0.85;;;;;;;16.20;24.34;93205.69;5095541;28;20048;-40
2021/04/07 04:18:07;;;;;;;1.00;0.80;;;;;;;16.18;24.21;93213.19;5095310;28;20059;-41
2021/04/07 04:20:35;;;;;;;1.92;1.20;;;;;;;16.17;24.33;93222.22;5095575;28;20055;-41
2021/04/07 04:23:02;;;;;;;1.75;1.00;;;;;;;16.07;24.83;93239.34;5081071;28;20048;-42
2021/04/07 04:25:29;;;;;;;2.47;1.42;;;;;;;16.08;24.84;93237.47;5074643;28;20048;-40
2021/04/07 04:27:56;;;;;;;2.28;1.23;;;;;;;16.29;24.52;93240.53;5074538;28;20051;-40
2021/04/07 04:30:25;;;;;;;3.05;1.00;;;;;;;15.93;24.98;93247.75;5074356;28;20481;-41
2021/04/07 04:32:52;;;;;;;1.30;0.90;;;;;;;15.69;25.41;93255.91;5075038;28;20479;-40
2021/04/07 04:35:19;;;;;;;1.10;0.80;;;;;;;21.83;18.11;93265.09;5082415;28;20056;-43
2021/04/07 04:37:47;;;;;;;1.17;0.80;;;;;;;22.80;17.35;93257.53;5082982;28;20051;-47
2021/04/07 04:40:16;;;;;;;1.00;0.80;;;;;;;22.81;17.08;93269.72;5088612;28;20070;-40
2021/04/07 04:42:43;;;;;;;1.52;0.90;;;;;;;23.30;16.60;93256.09;5084919;28;20044;-44
2021/04/07 04:45:11;;;;;;;2.28;0.98;;;;;;;23.97;16.12;93286.81;5084295;28;20052;-40
2021/04/07 04:47:39;;;;;;;1.70;1.00;;;;;;;24.31;16.04;93264.72;5094712;28;20048;-46
2021/04/07 04:50:09;;;;;;;3.08;1.50;;;;;;;24.25;16.28;93275.06;5094822;28;20056;-41
2021/04/07 04:52:37;;;;;;;2.33;1.17;;;;;;;24.52;15.82;93269.81;5094805;28;20048;-42
2021/04/07 04:55:05;;;;;;;2.25;1.45;;;;;;;24.55;15.96;93277.03;5095053;28;20052;-41
2021/04/07 04:57:33;;;;;;;2.83;1.38;;;;;;;18.03;22.66;93279.56;5093682;28;20443;-41
2021/04/07 05:00:00;;;;;;;1.92;1.20;;;;;;;16.81;24.68;93276.16;5093680;28;20040;-41
2021/04/07 05:02:27;;;;;;;2.50;1.30;;;;;;;16.23;25.65;93289.38;5085878;28;20059;-41
2021/04/07 05:04:54;;;;;;;2.15;1.33;;;;;;;15.67;26.47;93297.63;5090733;28;20386;-39
2021/04/07 05:07:22;;;;;;;2.55;1.30;;;;;;;15.78;26.54;93298.63;5094883;28;20044;-40
2021/04/07 05:09:49;;;;;;;5.93;1.27;;;;;;;15.66;26.90;93309.28;5092581;28;20059;-39
2021/04/07 05:12:16;;;;;;;1.65;1.10;;;;;;;15.24;27.11;93299.25;5074117;28;20063;-39
2021/04/07 05:14:45;;;;;;;2.28;1.50;;;;;;;15.64;26.82;93290.41;5074655;28;20053;-39
2021/04/07 05:17:12;;;;;;;2.35;1.42;;;;;;;15.27;27.01;93282.00;5074306;28;20053;-40
2021/04/07 05:19:39;;;;;;;2.33;1.60;;;;;;;15.47;27.07;93290.75;5074360;28;20458;-40
2021/04/07 05:22:06;;;;;;;3.97;3.22;;;;;;;14.97;27.67;93308.00;5083143;28;20055;-41
2021/04/07 05:24:33;;;;;;;3.80;2.60;;;;;;;15.31;27.47;93304.69;5074552;28;20494;-44
2021/04/07 05:27:01;;;;;;;3.22;2.10;;;;;;;15.25;27.43;93306.03;5074647;28;20055;-40
2021/04/07 05:29:28;;;;;;;2.53;2.08;;;;;;;15.42;27.09;93304.94;5074466;28;20458;-40
2021/04/07 05:31:55;;;;;;;5.80;3.05;;;;;;;15.50;26.97;93305.84;5077392;28;20078;-41
2021/04/07 05:34:22;;;;;;;3.75;2.47;;;;;;;15.37;27.34;93319.13;5094702;28;20047;-41
2021/04/07 05:36:49;;;;;;;2.53;1.50;;;;;;;15.51;26.70;93317.91;5094803;28;20056;-41
2021/04/07 05:39:17;;;;;;;2.35;1.77;;;;;;;15.40;26.65;93318.44;5093886;28;20058;-40
2021/04/07 05:41:44;;;;;;;2.60;1.52;;;;;;;15.22;27.09;93322.53;5094091;28;20462;-40
2021/04/07 05:44:11;;;;;;;3.35;1.73;;;;;;;15.34;26.76;93319.03;5094675;28;20044;-40
2021/04/07 05:46:38;;;;;;;1.48;1.30;;;;;;;15.32;26.55;93335.16;5094791;28;20052;-40
2021/04/07 05:49:05;;;;;;;1.67;1.02;;;;;;;15.38;26.11;93331.19;5094529;28;20478;-40
2021/04/07 05:51:32;;;;;;;2.10;1.40;;;;;;;15.21;26.63;93346.56;5077997;28;20060;-40
2021/04/07 05:53:59;;;;;;;2.95;1.50;;;;;;;15.30;26.96;93345.28;5077989;28;20060;-41
2021/04/07 05:56:26;;;;;;;2.22;1.52;;;;;;;15.18;27.13;93352.50;5078069;28;20052;-40
2021/04/07 05:58:54;;;;;;;2.17;1.60;;;;;;;15.24;26.91;93357.16;5077721;28;20059;-39
2021/04/07 06:01:21;;;;;;;2.83;1.63;;;;;;;15.07;27.40;93325.91;5077586;28;20048;-41
2021/04/07 06:03:48;;;;;;;1.90;1.70;;;;;;;15.37;27.02;93308.59;5096824;28;20441;-39
2021/04/07 06:06:15;;;;;;;1.95;1.50;;;;;;;15.26;26.96;93291.78;5098129;28;20039;-41
2021/04/07 06:08:42;;;;;;;3.58;1.80;;;;;;;15.27;26.72;93317.00;5096881;28;20052;-40
2021/04/07 06:11:09;;;;;;;6.80;1.83;;;;;;;15.18;26.94;93342.75;5097691;28;20052;-40
2021/04/07 06:13:36;;;;;;;2.05;1.67;;;;;;;15.54;26.60;93359.38;5097658;28;20407;-40
2021/04/07 06:16:04;;;;;;;1.95;1.50;;;;;;;15.05;26.82;93357.06;5098137;28;20068;-40
2021/04/07 06:18:31;;;;;;;2.05;1.60;;;;;;;15.00;27.03;93373.09;5097689;28;20047;-40
2021/04/07 06:20:59;;;;;;;3.78;1.80;;;;;;;15.06;27.10;93382.28;5097318;28;20048;-40
2021/04/07 06:23:26;;;;;;;2.42;1.63;;;;;;;15.20;26.86;93387.91;5097813;28;20370;-40
2021/04/07 06:25:53;;;;;;;2.33;1.63;;;;;;;15.24;27.07;93386.13;5097632;28;20058;-40
2021/04/07 06:28:20;;;;;;;2.10;1.75;;;;;;;15.21;27.19;93399.22;5097502;28;20442;-40
2021/04/07 06:30:47;;;;;;;2.95;2.17;;;;;;;15.02;27.31;93397.97;5097356;28;20079;-40
2021/04/07 06:33:25;;;;;;;2.33;2.10;;;;;;;15.26;27.23;93402.34;5082541;28;20040;-40
2021/04/07 06:36:03;;;;;;;2.50;1.98;;;;;;;15.26;27.05;93376.03;5077156;28;20694;-40
2021/04/07 06:38:31;;;;;;;2.78;2.33;;;;;;;14.93;27.38;93393.97;5076328;28;20056;-41
2021/04/07 06:40:59;;;;;;;2.40;1.90;;;;;;;15.42;26.26;93405.78;5076904;28;20059;-41
2021/04/07 06:43:29;;;;;;;2.05;1.50;;;;;;;15.35;26.13;93405.63;5077060;28;20040;-40
2021/04/07 06:45:56;;;;;;;2.28;1.70;;;;;;;15.29;26.46;93416.72;5076998;28;20048;-40
2021/04/07 06:48:24;;;;;;;1.90;1.67;;;;;;;15.21;26.61;93421.03;5076979;28;20111;-40
2021/04/07 06:50:53;;;;;;;2.50;1.80;;;;;;;15.24;26.45;93427.50;5076765;28;20056;-40
2021/04/07 06:53:24;;;;;;;1.88;1.50;;;;;;;14.86;26.83;93409.59;5076802;28;20063;-40
2021/04/07 06:55:52;;;;;;;2.63;1.77;;;;;;;15.01;26.66;93411.47;5076792;28;20336;-41
2021/04/07 06:58:19;;;;;;;2.05;1.35;;;;;;;15.00;26.66;93438.91;5076687;28;20063;-40
2021/04/07 07:00:46;;;;;;;3.00;2.00;;;;;;;14.76;27.18;93440.50;5085553;28;20048;-40
2021/04/07 07:03:15;;;;;;;2.50;1.95;;;;;;;14.87;27.43;93447.94;5081716;28;20040;-40
2021/04/07 07:05:46;;;;;;;2.50;1.80;;;;;;;15.45;26.25;93454.38;5091566;28;20063;-39
2021/04/07 07:08:15;;;;;;;5.00;1.70;;;;;;;15.31;26.67;93452.13;5076441;28;20053;-40
2021/04/07 07:10:51;;;;;;;3.22;2.00;;;;;;;15.11;27.19;93445.22;5076388;28;20055;-40
2021/04/07 07:13:25;;;;;;;4.32;3.40;;;;;;;15.34;26.73;93446.19;5095468;28;20040;-40
2021/04/07 07:15:53;;;;;;;5.10;3.35;;;;;;;15.34;26.49;93445.41;5096620;28;20442;-40
2021/04/07 07:18:25;;;;;;;5.15;3.35;;;;;;;15.22;26.92;93438.38;5095750;28;20059;-41
2021/04/07 07:20:54;;;;;;;3.78;2.40;;;;;;;14.88;26.46;93444.22;5086010;28;20056;-40
2021/04/07 07:23:26;;;;;;;4.00;3.00;;;;;;;15.17;26.85;93440.47;5076304;28;20047;-40
2021/04/07 07:26:05;;;;;;;7.32;4.75;;;;;;;15.20;26.74;93451.09;5076183;28;20056;-41
2021/04/07 07:28:45;;;;;;;6.28;4.00;;;;;;;15.18;26.42;93463.84;5086294;28;20051;-40
2021/04/07 07:31:24;;;;;;;8.52;4.03;;;;;;;15.38;26.39;93447.06;5095024;28;20047;-40
2021/04/07 07:33:53;;;;;;;5.90;3.90;;;;;;;15.24;26.99;93459.84;5076294;28;20075;-40
2021/04/07 07:36:20;;;;;;;6.22;3.67;;;;;;;15.48;26.95;93450.28;5075956;28;20052;-40
2021/04/07 07:38:51;;;;;;;5.05;3.95;;;;;;;15.78;26.59;93443.53;5075760;28;20048;-40
2021/04/07 07:41:20;;;;;;;7.50;3.72;;;;;;;15.21;26.78;93457.91;5078485;28;20055;-40
2021/04/07 07:43:48;;;;;;;5.68;4.00;;;;;;;15.75;25.66;93470.56;5075760;28;20455;-41
2021/04/07 07:46:22;;;;;;;6.38;4.18;;;;;;;15.49;25.72;93492.09;5075832;28;20083;-42
2021/04/07 07:48:49;;;;;;;9.27;4.80;;;;;;;15.77;25.52;93493.94;5075655;28;20366;-40
2021/04/07 07:51:19;;;;;;;7.60;4.60;;;;;;;15.72;25.57;93479.16;5079411;28;20043;-41
2021/04/07 07:53:49;;;;;;;6.10;4.43;;;;;;;15.46;26.06;93494.66;5094806;28;20048;-41
2021/04/07 07:56:18;;;;;;;4.88;2.60;;;;;;;15.76;25.26;93508.22;5096096;28;20047;-40
2021/04/07 07:58:51;;;;;;;6.22;4.40;;;;;;;15.45;26.31;93509.69;5095833;28;20366;-40
2021/04/07 08:01:19;;;;;;;3.83;3.03;;;;;;;15.82;25.67;93507.63;5083076;28;20052;-40
2021/04/07 08:03:48;;;;;;;4.25;2.63;;;;;;;15.56;25.61;93505.44;5094269;28;20040;-40
2021/04/07 08:06:16;;;;;;;6.63;4.28;;;;;;;15.76;25.05;93514.28;5094715;28;20505;-41
2021/04/07 08:08:58;;;;;;;11.60;6.15;;;;;;;15.66;25.75;93506.88;5095735;28;20059;-40
2021/04/07 08:11:25;;;;;;;8.00;5.35;;;;;;;15.69;26.03;93482.47;5085761;28;20060;-40
2021/04/07 08:13:54;;;;;;;8.20;5.55;;;;;;;16.24;25.66;93491.31;5095033;28;20056;-40
2021/04/07 08:16:22;;;;;;;7.30;3.70;;;;;;;16.14;25.48;93491.84;5094490;28;20060;-41
2021/04/07 08:18:50;;;;;;;3.08;2.38;;;;;;;15.89;26.04;93485.97;5095340;28;20362;-40
2021/04/07 08:21:19;;;;;;;4.55;3.50;;;;;;;16.28;26.08;93492.16;5083492;28;20051;-45
2021/04/07 08:23:56;;;;;;;;;;;;;;;15.98;25.89;93500.50;5075674;28;20051;-41
2021/04/07 08:26:27;;;;;;;4.47;3.15;;;;;;;16.13;25.80;93511.38;5074294;28;19919;-41
2021/04/07 08:28:54;;;;;;;4.32;2.95;;;;;;;16.04;25.29;93530.78;5092846;28;20040;-41
2021/04/07 08:31:22;;;;;;;4.75;2.90;;;;;;;16.02;25.53;93522.44;5083088;28;20063;-41
2021/04/07 08:33:50;;;;;;;5.40;3.25;;;;;;;16.00;25.67;93535.22;5094152;28;20052;-41
2021/04/07 08:36:19;;;;;;;4.38;3.38;;;;;;;16.14;25.50;93534.03;5077529;28;20052;-40
2021/04/07 08:38:46;;;;;;;4.53;3.45;;;;;;;16.20;25.32;93535.31;5095317;28;20051;-40
2021/04/07 08:41:19;;;;;;;6.72;4.10;;;;;;;16.23;25.15;93537.25;5095035;28;20048;-43
2021/04/07 08:43:46;;;;;;;7.00;3.85;;;;;;;16.25;25.10;93529.75;5095190;28;20040;-49
2021/04/07 08:46:16;;;;;;;4.38;3.63;;;;;;;16.17;25.01;93517.53;5095344;28;20347;-40
2021/04/07 08:48:44;;;;;;;4.22;3.58;;;;;;;16.01;25.74;93523.56;5095207;28;20048;-40
2021/04/07 08:51:13;;;;;;;7.40;3.80;;;;;;;16.73;24.63;93527.88;5094999;28;20060;-40
2021/04/07 08:53:45;;;;;;;3.88;3.10;;;;;;;16.04;25.50;93533.41;5095066;28;20052;-40
2021/04/07 08:56:14;;;;;;;5.17;3.20;;;;;;;16.21;24.97;93565.84;5095213;28;20040;-40
2021/04/07 08:58:58;;;;;;;4.60;3.35;;;;;;;16.32;25.15;93556.31;5094997;28;20051;-41
2021/04/07 09:01:35;;;;;;;4.82;3.25;;;;;;;16.51;24.71;93553.75;5095045;28;20078;-40
2021/04/07 09:04:14;;;;;;;4.22;2.95;;;;;;;16.20;25.13;93565.06;5074752;28;20363;-45
2021/04/07 09:07:02;;;;;;;4.85;3.42;;;;;;;16.35;25.00;93563.53;5074172;28;20049;-40
2021/04/07 09:09:36;;;;;;;4.30;3.03;;;;;;;15.90;25.57;93577.88;5074672;28;20053;-40
2021/04/07 09:12:04;;;;;;;4.10;3.40;;;;;;;16.18;25.67;93587.63;5091125;28;20051;-40
2021/04/07 09:14:31;;;;;;;5.32;3.78;;;;;;;16.09;26.16;93584.34;5093892;28;20055;-44
2021/04/07 09:17:05;;;;;;;59.33;40.35;;;;;;;16.10;25.88;93581.38;5093812;28;20051;-44
2021/04/07 09:19:37;;;;;;;9.05;6.30;;;;;;;16.11;25.44;93571.59;5094842;28;20048;-41
2021/04/07 09:22:04;;;;;;;5.20;3.40;;;;;;;16.11;25.67;93556.53;5094651;28;20048;-41
2021/04/07 09:24:41;;;;;;;4.28;3.60;;;;;;;16.12;26.40;93562.59;5094856;28;20044;-41
2021/04/07 09:27:20;;;;;;;4.43;3.55;;;;;;;16.33;25.73;93568.38;5097581;28;20048;-40
2021/04/07 09:29:47;;;;;;;6.03;4.68;;;;;;;16.25;26.09;93582.50;5098634;28;20044;-40
2021/04/07 09:32:16;;;;;;;8.18;5.45;;;;;;;16.24;26.06;93597.56;5086913;28;20044;-41
2021/04/07 09:34:43;;;;;;;5.57;4.40;;;;;;;16.09;26.25;93594.91;5098839;28;20055;-41
2021/04/07 09:37:11;;;;;;;4.60;3.60;;;;;;;15.99;26.41;93601.44;5098639;28;20081;-40
2021/04/07 09:39:40;;;;;;;4.20;3.70;;;;;;;16.44;25.86;93606.34;5090868;28;20470;-48
2021/04/07 09:42:08;;;;;;;5.28;4.18;;;;;;;16.13;26.84;93620.25;5078004;28;20458;-41
2021/04/07 09:44:35;;;;;;;9.18;7.13;;;;;;;16.07;26.14;93618.19;5078147;28;20439;-39
2021/04/07 09:47:04;;;;;;;11.15;6.55;;;;;;;16.26;26.08;93632.28;5092800;28;20366;-40
2021/04/07 09:49:33;;;;;;;4.97;3.70;;;;;;;16.19;25.86;93631.34;5098259;28;20489;-40
2021/04/07 09:52:01;;;;;;;4.15;3.13;;;;;;;16.28;25.99;93624.03;5083052;28;20465;-40
2021/04/07 09:54:33;;;;;;;7.68;3.70;;;;;;;16.48;25.85;93628.28;5077966;28;20060;-39
2021/04/07 09:57:12;;;;;;;4.68;3.60;;;;;;;16.42;25.91;93640.22;5086972;28;20450;-40
2021/04/07 09:59:46;;;;;;;7.82;5.20;;;;;;;16.50;25.56;93641.16;5098067;28;20414;-40
2021/04/07 10:02:24;;;;;;;6.40;5.28;;;;;;;17.02;24.95;93635.59;5087046;28;20048;-40
2021/04/07 10:04:53;;;;;;;9.82;6.82;;;;;;;16.45;25.64;93634.25;5098162;28;20043;-41
2021/04/07 10:07:25;;;;;;;9.73;6.05;;;;;;;16.54;26.01;93624.28;5098123;28;20059;-40
2021/04/07 10:09:54;;;;;;;11.00;7.07;;;;;;;16.04;26.27;93620.41;5097872;28;20079;-41
2021/04/07 10:12:23;;;;;;;8.48;5.95;;;;;;;16.41;26.90;93630.00;5097536;28;20075;-40
2021/04/07 10:14:54;;;;;;;10.05;6.53;;;;;;;16.20;26.44;93643.41;5097878;28;20072;-40
2021/04/07 10:17:26;;;;;;;7.15;4.90;;;;;;;16.55;26.09;93628.47;5097588;28;20052;-40
2021/04/07 10:19:53;;;;;;;7.43;5.07;;;;;;;16.22;25.92;93634.06;5097699;28;20044;-40
2021/04/07 10:22:29;;;;;;;7.72;5.30;;;;;;;15.92;26.50;93638.16;5080696;28;20378;-40
2021/04/07 10:25:01;;;;;;;8.02;5.32;;;;;;;15.97;26.60;93638.69;5077511;28;20056;-40
2021/04/07 10:27:28;;;;;;;6.57;4.55;;;;;;;16.34;26.25;93635.84;5079865;28;20059;-40
2021/04/07 10:30:23;;;;;;;4.22;3.22;;;;;;;16.14;25.73;93652.69;5096480;28;20051;-41
2021/04/07 10:32:54;;;;;;;4.75;3.60;;;;;;;16.18;26.09;93661.44;5087249;28;20052;-40
2021/04/07 10:35:26;;;;;;;6.95;4.40;;;;;;;16.46;26.18;93650.84;5096544;28;20052;-41
2021/04/07 10:37:59;;;;;;;6.00;3.85;;;;;;;16.90;25.59;93648.91;5096527;28;20062;-40
2021/04/07 10:40:28;;;;;;;8.23;4.82;;;;;;;17.01;25.27;93657.06;5097254;28;20338;-40
2021/04/07 10:42:56;;;;;;;11.38;7.22;;;;;;;16.80;25.85;93652.81;5096617;28;20358;-40
2021/04/07 10:45:25;;;;;;;10.77;6.20;;;;;;;17.24;24.90;93653.44;5097318;28;20044;-40
2021/04/07 10:48:00;;;;;;;10.00;5.90;;;;;;;17.53;24.09;93648.78;5096837;28;20056;-40
2021/04/07 10:50:45;;;;;;;8.10;5.07;;;;;;;17.19;24.43;93651.09;5096801;28;20070;-41
2021/04/07 10:53:12;;;;;;;5.95;3.92;;;;;;;17.75;23.91;93663.97;5076822;28;20059;-41
2021/04/07 10:55:39;;;;;;;7.20;5.18;;;;;;;17.77;23.68;93664.41;5076812;28;20048;-42
2021/04/07 10:58:06;;;;;;;5.25;4.20;;;;;;;17.80;23.55;93665.56;5075651;28;20048;-40
2021/04/07 11:00:42;;;;;;;5.15;4.20;;;;;;;18.10;23.09;93668.41;5077186;28;20049;-41
2021/04/07 11:03:09;;;;;;;4.65;3.13;;;;;;;18.18;23.23;93662.13;5082830;28;20044;-40
2021/04/07 11:05:44;;;;;;;3.78;3.00;;;;;;;17.90;23.80;93664.25;5076699;28;20052;-40
2021/04/07 11:08:16;;;;;;;3.58;2.80;;;;;;;18.12;23.29;93669.59;5076471;28;20052;-40
2021/04/07 11:10:51;;;;;;;4.15;3.20;;;;;;;17.79;23.70;93671.97;5076312;28;20443;-40
2021/04/07 11:13:19;;;;;;;6.25;4.43;;;;;;;18.10;23.59;93673.72;5076368;28;20056;-40
2021/04/07 11:15:47;;;;;;;5.80;4.68;;;;;;;18.40;22.97;93669.34;5074589;28;20367;-41
2021/04/07 11:18:15;;;;;;;3.95;3.38;;;;;;;18.29;23.07;93673.69;5076304;28;20057;-41
2021/04/07 11:20:44;;;;;;;3.25;2.70;;;;;;;18.39;22.75;93673.09;5082522;28;20052;-40
2021/04/07 11:23:12;;;;;;;3.47;2.78;;;;;;;18.56;21.84;93671.13;5076265;28;20048;-41
2021/04/07 11:25:40;;;;;;;4.13;3.17;;;;;;;18.32;22.38;93665.06;5076332;28;20463;-41
2021/04/07 11:28:20;;;;;;;5.03;3.33;;;;;;;18.45;22.13;93663.75;5076257;28;20048;-40
2021/04/07 11:31:00;;;;;;;4.00;3.50;;;;;;;18.73;21.75;93671.44;5076177;28;20048;-45
2021/04/07 11:33:38;;;;;;;3.75;3.00;;;;;;;18.40;22.25;93685.22;5092222;28;20466;-40
2021/04/07 11:36:18;;;;;;;3.08;2.78;;;;;;;18.62;22.17;93670.50;5096251;28;20059;-40
2021/04/07 11:44:29;;;;;;;6.78;4.47;;;;;;;18.44;22.79;93686.03;5095415;28;19912;-41
2021/04/07 11:46:57;;;;;;;7.15;5.10;;;;;;;18.42;23.08;93682.97;5096170;28;20059;-41